sensor_id;sensor_type;location;lat;lon;timestamp;P1;durP1;ratioP1;P2;durP2;ratioP2
75005;SDS011;63553;51.814;4.600;2024-01-25T00:01:56;13.25;;;3.95;;
75005;SDS011;63553;51.814;4.600;2024-01-25T00:04:22;7.13;;;3.45;;
75005;SDS011;63553;51.814;4.600;2024-01-25T00:06:47;10.63;;;3.00;;
75005;SDS011;63553;51.814;4.600;2024-01-25T00:09:12;8.73;;;3.33;;
75005;SDS011;63553;51.814;4.600;2024-01-25T00:11:38;10.63;;;2.97;;
75005;SDS011;63553;51.814;4.600;2024-01-25T00:14:03;12.43;;;3.67;;
75005;SDS011;63553;51.814;4.600;2024-01-25T00:16:29;8.35;;;3.30;;
75005;SDS011;63553;51.814;4.600;2024-01-25T00:18:55;6.22;;;2.67;;
75005;SDS011;63553;51.814;4.600;2024-01-25T00:21:20;10.10;;;4.65;;
75005;SDS011;63553;51.814;4.600;2024-01-25T00:23:46;10.30;;;3.83;;
75005;SDS011;63553;51.814;4.600;2024-01-25T00:26:11;10.27;;;3.25;;
75005;SDS011;63553;51.814;4.600;2024-01-25T00:28:37;5.45;;;2.88;;
75005;SDS011;63553;51.814;4.600;2024-01-25T00:31:02;8.13;;;2.80;;
75005;SDS011;63553;51.814;4.600;2024-01-25T00:33:28;5.43;;;3.15;;
75005;SDS011;63553;51.814;4.600;2024-01-25T00:35:53;7.32;;;2.92;;
75005;SDS011;63553;51.814;4.600;2024-01-25T00:38:19;11.70;;;2.97;;
75005;SDS011;63553;51.814;4.600;2024-01-25T00:40:45;12.48;;;3.80;;
75005;SDS011;63553;51.814;4.600;2024-01-25T00:43:10;7.88;;;2.97;;
75005;SDS011;63553;51.814;4.600;2024-01-25T00:45:36;9.23;;;2.92;;
75005;SDS011;63553;51.814;4.600;2024-01-25T00:48:02;7.78;;;2.95;;
75005;SDS011;63553;51.814;4.600;2024-01-25T00:50:27;7.57;;;3.13;;
75005;SDS011;63553;51.814;4.600;2024-01-25T00:52:53;8.90;;;3.40;;
75005;SDS011;63553;51.814;4.600;2024-01-25T00:55:19;8.73;;;2.83;;
75005;SDS011;63553;51.814;4.600;2024-01-25T00:57:45;10.98;;;3.15;;
75005;SDS011;63553;51.814;4.600;2024-01-25T01:00:10;6.05;;;2.40;;
75005;SDS011;63553;51.814;4.600;2024-01-25T01:02:41;7.20;;;2.78;;
75005;SDS011;63553;51.814;4.600;2024-01-25T01:05:08;7.03;;;3.05;;
75005;SDS011;63553;51.814;4.600;2024-01-25T01:07:35;7.30;;;2.83;;
75005;SDS011;63553;51.814;4.600;2024-01-25T01:10:00;8.70;;;2.83;;
75005;SDS011;63553;51.814;4.600;2024-01-25T01:12:26;11.27;;;3.40;;
75005;SDS011;63553;51.814;4.600;2024-01-25T01:14:51;8.63;;;3.03;;
75005;SDS011;63553;51.814;4.600;2024-01-25T01:17:16;8.30;;;2.80;;
75005;SDS011;63553;51.814;4.600;2024-01-25T01:19:43;6.85;;;3.05;;
75005;SDS011;63553;51.814;4.600;2024-01-25T01:22:09;6.72;;;3.03;;
75005;SDS011;63553;51.814;4.600;2024-01-25T01:24:34;8.10;;;2.97;;
75005;SDS011;63553;51.814;4.600;2024-01-25T01:26:59;5.28;;;2.90;;
75005;SDS011;63553;51.814;4.600;2024-01-25T01:29:25;6.43;;;2.70;;
75005;SDS011;63553;51.814;4.600;2024-01-25T01:31:50;4.03;;;2.42;;
75005;SDS011;63553;51.814;4.600;2024-01-25T01:34:15;8.37;;;3.40;;
75005;SDS011;63553;51.814;4.600;2024-01-25T01:36:42;6.57;;;3.03;;
75005;SDS011;63553;51.814;4.600;2024-01-25T01:39:08;5.45;;;2.83;;
75005;SDS011;63553;51.814;4.600;2024-01-25T01:41:34;4.03;;;2.50;;
75005;SDS011;63553;51.814;4.600;2024-01-25T01:43:59;8.00;;;2.63;;
75005;SDS011;63553;51.814;4.600;2024-01-25T01:46:34;7.87;;;3.03;;
75005;SDS011;63553;51.814;4.600;2024-01-25T01:49:02;7.45;;;2.72;;
75005;SDS011;63553;51.814;4.600;2024-01-25T01:51:29;4.95;;;2.88;;
75005;SDS011;63553;51.814;4.600;2024-01-25T01:53:56;6.82;;;2.60;;
75005;SDS011;63553;51.814;4.600;2024-01-25T01:56:24;5.40;;;2.83;;
75005;SDS011;63553;51.814;4.600;2024-01-25T01:58:52;8.10;;;2.53;;
75005;SDS011;63553;51.814;4.600;2024-01-25T02:01:18;10.07;;;3.17;;
75005;SDS011;63553;51.814;4.600;2024-01-25T02:03:45;4.72;;;2.30;;
75005;SDS011;63553;51.814;4.600;2024-01-25T02:06:10;5.67;;;2.77;;
75005;SDS011;63553;51.814;4.600;2024-01-25T02:08:35;6.00;;;2.50;;
75005;SDS011;63553;51.814;4.600;2024-01-25T02:11:01;3.20;;;2.30;;
75005;SDS011;63553;51.814;4.600;2024-01-25T02:13:27;3.63;;;2.33;;
75005;SDS011;63553;51.814;4.600;2024-01-25T02:15:52;8.10;;;2.87;;
75005;SDS011;63553;51.814;4.600;2024-01-25T02:18:17;4.53;;;2.53;;
75005;SDS011;63553;51.814;4.600;2024-01-25T02:20:43;4.90;;;2.85;;
75005;SDS011;63553;51.814;4.600;2024-01-25T02:23:08;5.43;;;2.73;;
75005;SDS011;63553;51.814;4.600;2024-01-25T02:25:34;4.83;;;2.27;;
75005;SDS011;63553;51.814;4.600;2024-01-25T02:27:59;4.22;;;2.50;;
75005;SDS011;63553;51.814;4.600;2024-01-25T02:30:24;3.47;;;2.20;;
75005;SDS011;63553;51.814;4.600;2024-01-25T02:32:50;7.40;;;2.70;;
75005;SDS011;63553;51.814;4.600;2024-01-25T02:35:15;5.90;;;2.55;;
75005;SDS011;63553;51.814;4.600;2024-01-25T02:37:40;5.55;;;2.63;;
75005;SDS011;63553;51.814;4.600;2024-01-25T02:40:06;5.00;;;2.47;;
75005;SDS011;63553;51.814;4.600;2024-01-25T02:42:32;6.90;;;2.40;;
75005;SDS011;63553;51.814;4.600;2024-01-25T02:44:57;6.20;;;2.53;;
75005;SDS011;63553;51.814;4.600;2024-01-25T02:47:23;10.30;;;2.87;;
75005;SDS011;63553;51.814;4.600;2024-01-25T02:49:48;4.75;;;2.15;;
75005;SDS011;63553;51.814;4.600;2024-01-25T02:52:13;5.67;;;2.97;;
75005;SDS011;63553;51.814;4.600;2024-01-25T02:54:39;6.03;;;2.70;;
75005;SDS011;63553;51.814;4.600;2024-01-25T02:57:04;4.13;;;2.20;;
75005;SDS011;63553;51.814;4.600;2024-01-25T02:59:30;4.28;;;2.30;;
75005;SDS011;63553;51.814;4.600;2024-01-25T03:01:55;3.58;;;2.03;;
75005;SDS011;63553;51.814;4.600;2024-01-25T03:04:20;5.82;;;2.28;;
75005;SDS011;63553;51.814;4.600;2024-01-25T03:06:46;7.43;;;2.55;;
75005;SDS011;63553;51.814;4.600;2024-01-25T03:09:11;3.10;;;2.20;;
75005;SDS011;63553;51.814;4.600;2024-01-25T03:11:36;6.00;;;2.57;;
75005;SDS011;63553;51.814;4.600;2024-01-25T03:14:02;6.83;;;2.00;;
75005;SDS011;63553;51.814;4.600;2024-01-25T03:16:27;5.22;;;2.33;;
75005;SDS011;63553;51.814;4.600;2024-01-25T03:18:52;8.07;;;2.60;;
75005;SDS011;63553;51.814;4.600;2024-01-25T03:21:18;2.30;;;2.03;;
75005;SDS011;63553;51.814;4.600;2024-01-25T03:23:43;3.63;;;2.20;;
75005;SDS011;63553;51.814;4.600;2024-01-25T03:26:08;4.80;;;2.20;;
75005;SDS011;63553;51.814;4.600;2024-01-25T03:28:34;3.47;;;2.20;;
75005;SDS011;63553;51.814;4.600;2024-01-25T03:31:00;5.90;;;2.17;;
75005;SDS011;63553;51.814;4.600;2024-01-25T03:33:25;4.10;;;2.20;;
75005;SDS011;63553;51.814;4.600;2024-01-25T03:35:53;6.28;;;2.30;;
75005;SDS011;63553;51.814;4.600;2024-01-25T03:38:18;6.60;;;2.03;;
75005;SDS011;63553;51.814;4.600;2024-01-25T03:40:43;5.70;;;2.47;;
75005;SDS011;63553;51.814;4.600;2024-01-25T03:43:09;3.63;;;2.10;;
75005;SDS011;63553;51.814;4.600;2024-01-25T03:45:34;4.32;;;2.20;;
75005;SDS011;63553;51.814;4.600;2024-01-25T03:47:59;4.77;;;2.17;;
75005;SDS011;63553;51.814;4.600;2024-01-25T03:50:26;4.85;;;2.17;;
75005;SDS011;63553;51.814;4.600;2024-01-25T03:52:51;3.55;;;1.85;;
75005;SDS011;63553;51.814;4.600;2024-01-25T03:55:17;4.53;;;2.35;;
75005;SDS011;63553;51.814;4.600;2024-01-25T03:57:42;4.57;;;2.30;;
75005;SDS011;63553;51.814;4.600;2024-01-25T04:00:08;4.07;;;1.88;;
75005;SDS011;63553;51.814;4.600;2024-01-25T04:02:34;4.55;;;1.98;;
75005;SDS011;63553;51.814;4.600;2024-01-25T04:04:59;5.80;;;2.05;;
75005;SDS011;63553;51.814;4.600;2024-01-25T04:07:25;4.60;;;2.20;;
75005;SDS011;63553;51.814;4.600;2024-01-25T04:09:50;7.07;;;2.10;;
75005;SDS011;63553;51.814;4.600;2024-01-25T04:12:16;2.83;;;1.47;;
75005;SDS011;63553;51.814;4.600;2024-01-25T04:14:41;6.05;;;2.45;;
75005;SDS011;63553;51.814;4.600;2024-01-25T04:17:06;4.17;;;1.90;;
75005;SDS011;63553;51.814;4.600;2024-01-25T04:19:32;3.67;;;2.00;;
75005;SDS011;63553;51.814;4.600;2024-01-25T04:21:57;3.87;;;1.83;;
75005;SDS011;63553;51.814;4.600;2024-01-25T04:24:22;4.90;;;2.27;;
75005;SDS011;63553;51.814;4.600;2024-01-25T04:26:48;4.67;;;1.93;;
75005;SDS011;63553;51.814;4.600;2024-01-25T04:29:13;6.03;;;1.85;;
75005;SDS011;63553;51.814;4.600;2024-01-25T04:31:45;5.90;;;2.13;;
75005;SDS011;63553;51.814;4.600;2024-01-25T04:34:14;2.53;;;1.65;;
75005;SDS011;63553;51.814;4.600;2024-01-25T04:36:40;6.28;;;2.15;;
75005;SDS011;63553;51.814;4.600;2024-01-25T04:39:06;2.87;;;1.83;;
75005;SDS011;63553;51.814;4.600;2024-01-25T04:41:31;4.20;;;2.03;;
75005;SDS011;63553;51.814;4.600;2024-01-25T04:43:56;4.13;;;2.17;;
75005;SDS011;63553;51.814;4.600;2024-01-25T04:46:22;5.60;;;2.20;;
75005;SDS011;63553;51.814;4.600;2024-01-25T04:48:47;4.53;;;2.00;;
75005;SDS011;63553;51.814;4.600;2024-01-25T04:51:19;4.67;;;2.20;;
75005;SDS011;63553;51.814;4.600;2024-01-25T04:53:45;4.45;;;1.95;;
75005;SDS011;63553;51.814;4.600;2024-01-25T04:56:11;3.42;;;1.70;;
75005;SDS011;63553;51.814;4.600;2024-01-25T04:58:36;2.53;;;1.73;;
75005;SDS011;63553;51.814;4.600;2024-01-25T05:01:02;6.60;;;2.70;;
75005;SDS011;63553;51.814;4.600;2024-01-25T05:03:27;4.18;;;2.08;;
75005;SDS011;63553;51.814;4.600;2024-01-25T05:05:52;5.60;;;2.00;;
75005;SDS011;63553;51.814;4.600;2024-01-25T05:08:18;4.07;;;1.80;;
75005;SDS011;63553;51.814;4.600;2024-01-25T05:10:43;4.37;;;1.97;;
75005;SDS011;63553;51.814;4.600;2024-01-25T05:13:08;5.30;;;2.13;;
75005;SDS011;63553;51.814;4.600;2024-01-25T05:15:34;61.17;;;13.93;;
75005;SDS011;63553;51.814;4.600;2024-01-25T05:17:59;33.55;;;9.15;;
75005;SDS011;63553;51.814;4.600;2024-01-25T05:20:25;23.52;;;6.70;;
75005;SDS011;63553;51.814;4.600;2024-01-25T05:22:57;21.08;;;6.13;;
75005;SDS011;63553;51.814;4.600;2024-01-25T05:25:22;23.02;;;7.15;;
75005;SDS011;63553;51.814;4.600;2024-01-25T05:27:47;24.27;;;6.90;;
75005;SDS011;63553;51.814;4.600;2024-01-25T05:30:13;22.70;;;6.33;;
75005;SDS011;63553;51.814;4.600;2024-01-25T05:32:38;20.42;;;7.10;;
75005;SDS011;63553;51.814;4.600;2024-01-25T05:35:04;20.45;;;6.55;;
75005;SDS011;63553;51.814;4.600;2024-01-25T05:37:30;21.27;;;6.43;;
75005;SDS011;63553;51.814;4.600;2024-01-25T05:39:55;22.48;;;6.22;;
75005;SDS011;63553;51.814;4.600;2024-01-25T05:42:20;17.88;;;6.57;;
75005;SDS011;63553;51.814;4.600;2024-01-25T05:44:46;19.57;;;5.93;;
75005;SDS011;63553;51.814;4.600;2024-01-25T05:47:11;18.45;;;5.55;;
75005;SDS011;63553;51.814;4.600;2024-01-25T05:49:37;19.70;;;6.22;;
75005;SDS011;63553;51.814;4.600;2024-01-25T05:52:02;12.70;;;5.63;;
75005;SDS011;63553;51.814;4.600;2024-01-25T05:54:28;15.45;;;5.97;;
75005;SDS011;63553;51.814;4.600;2024-01-25T05:56:53;16.93;;;5.67;;
75005;SDS011;63553;51.814;4.600;2024-01-25T05:59:19;20.97;;;5.63;;
75005;SDS011;63553;51.814;4.600;2024-01-25T06:01:44;18.20;;;6.00;;
75005;SDS011;63553;51.814;4.600;2024-01-25T06:04:09;16.67;;;5.13;;
75005;SDS011;63553;51.814;4.600;2024-01-25T06:06:35;16.90;;;5.87;;
75005;SDS011;63553;51.814;4.600;2024-01-25T06:09:00;13.40;;;5.03;;
75005;SDS011;63553;51.814;4.600;2024-01-25T06:11:25;15.90;;;5.60;;
75005;SDS011;63553;51.814;4.600;2024-01-25T06:13:51;15.40;;;4.97;;
75005;SDS011;63553;51.814;4.600;2024-01-25T06:16:16;15.13;;;5.73;;
75005;SDS011;63553;51.814;4.600;2024-01-25T06:18:41;13.57;;;5.00;;
75005;SDS011;63553;51.814;4.600;2024-01-25T06:21:06;15.80;;;4.90;;
75005;SDS011;63553;51.814;4.600;2024-01-25T06:23:32;14.07;;;4.10;;
75005;SDS011;63553;51.814;4.600;2024-01-25T06:25:57;11.20;;;4.60;;
75005;SDS011;63553;51.814;4.600;2024-01-25T06:28:22;13.93;;;4.37;;
75005;SDS011;63553;51.814;4.600;2024-01-25T06:30:48;11.40;;;4.23;;
75005;SDS011;63553;51.814;4.600;2024-01-25T06:33:13;13.40;;;4.82;;
75005;SDS011;63553;51.814;4.600;2024-01-25T06:35:39;12.32;;;4.28;;
75005;SDS011;63553;51.814;4.600;2024-01-25T06:38:04;11.52;;;3.97;;
75005;SDS011;63553;51.814;4.600;2024-01-25T06:40:29;13.87;;;4.53;;
75005;SDS011;63553;51.814;4.600;2024-01-25T06:42:55;10.63;;;4.00;;
75005;SDS011;63553;51.814;4.600;2024-01-25T06:45:20;10.70;;;4.30;;
75005;SDS011;63553;51.814;4.600;2024-01-25T06:47:46;12.40;;;4.50;;
75005;SDS011;63553;51.814;4.600;2024-01-25T06:50:11;13.30;;;4.43;;
75005;SDS011;63553;51.814;4.600;2024-01-25T06:52:37;12.27;;;4.25;;
75005;SDS011;63553;51.814;4.600;2024-01-25T06:55:02;12.25;;;4.03;;
75005;SDS011;63553;51.814;4.600;2024-01-25T06:57:28;11.77;;;3.83;;
75005;SDS011;63553;51.814;4.600;2024-01-25T06:59:53;11.07;;;4.13;;
75005;SDS011;63553;51.814;4.600;2024-01-25T07:02:18;9.20;;;3.90;;
75005;SDS011;63553;51.814;4.600;2024-01-25T07:04:43;9.17;;;3.33;;
75005;SDS011;63553;51.814;4.600;2024-01-25T07:07:09;8.77;;;3.83;;
75005;SDS011;63553;51.814;4.600;2024-01-25T07:09:34;7.18;;;3.28;;
75005;SDS011;63553;51.814;4.600;2024-01-25T07:12:00;9.77;;;3.60;;
75005;SDS011;63553;51.814;4.600;2024-01-25T07:14:25;13.45;;;3.50;;
75005;SDS011;63553;51.814;4.600;2024-01-25T07:16:50;16.20;;;3.03;;
75005;SDS011;63553;51.814;4.600;2024-01-25T07:19:16;14.27;;;3.40;;
75005;SDS011;63553;51.814;4.600;2024-01-25T07:21:41;27.60;;;4.00;;
75005;SDS011;63553;51.814;4.600;2024-01-25T07:24:06;15.80;;;3.40;;
75005;SDS011;63553;51.814;4.600;2024-01-25T07:26:32;15.98;;;3.45;;
75005;SDS011;63553;51.814;4.600;2024-01-25T07:28:57;16.93;;;2.73;;
75005;SDS011;63553;51.814;4.600;2024-01-25T07:31:24;13.05;;;3.58;;
75005;SDS011;63553;51.814;4.600;2024-01-25T07:33:50;14.80;;;3.47;;
75005;SDS011;63553;51.814;4.600;2024-01-25T07:36:16;19.20;;;3.83;;
75005;SDS011;63553;51.814;4.600;2024-01-25T07:38:42;17.75;;;4.28;;
75005;SDS011;63553;51.814;4.600;2024-01-25T07:41:08;17.58;;;2.95;;
75005;SDS011;63553;51.814;4.600;2024-01-25T07:43:33;16.20;;;4.00;;
75005;SDS011;63553;51.814;4.600;2024-01-25T07:45:58;18.93;;;4.30;;
75005;SDS011;63553;51.814;4.600;2024-01-25T07:48:24;14.93;;;3.40;;
75005;SDS011;63553;51.814;4.600;2024-01-25T07:50:49;11.85;;;3.28;;
75005;SDS011;63553;51.814;4.600;2024-01-25T07:53:14;19.27;;;2.87;;
75005;SDS011;63553;51.814;4.600;2024-01-25T07:55:41;14.48;;;3.20;;
75005;SDS011;63553;51.814;4.600;2024-01-25T07:58:06;14.48;;;3.97;;
75005;SDS011;63553;51.814;4.600;2024-01-25T08:00:32;24.93;;;3.73;;
75005;SDS011;63553;51.814;4.600;2024-01-25T08:02:57;13.37;;;2.70;;
75005;SDS011;63553;51.814;4.600;2024-01-25T08:05:22;9.93;;;2.03;;
75005;SDS011;63553;51.814;4.600;2024-01-25T08:07:48;7.00;;;2.05;;
75005;SDS011;63553;51.814;4.600;2024-01-25T08:10:14;5.38;;;1.75;;
75005;SDS011;63553;51.814;4.600;2024-01-25T08:12:40;9.07;;;1.73;;
75005;SDS011;63553;51.814;4.600;2024-01-25T08:15:09;7.97;;;1.70;;
75005;SDS011;63553;51.814;4.600;2024-01-25T08:17:34;6.50;;;2.38;;
75005;SDS011;63553;51.814;4.600;2024-01-25T08:20:01;5.95;;;1.70;;
75005;SDS011;63553;51.814;4.600;2024-01-25T08:22:27;7.70;;;1.83;;
75005;SDS011;63553;51.814;4.600;2024-01-25T08:24:53;9.73;;;2.20;;
75005;SDS011;63553;51.814;4.600;2024-01-25T08:27:18;8.32;;;1.85;;
75005;SDS011;63553;51.814;4.600;2024-01-25T08:29:44;3.75;;;1.77;;
75005;SDS011;63553;51.814;4.600;2024-01-25T08:32:10;5.80;;;1.73;;
75005;SDS011;63553;51.814;4.600;2024-01-25T08:34:35;3.27;;;1.70;;
75005;SDS011;63553;51.814;4.600;2024-01-25T08:37:00;6.32;;;2.17;;
75005;SDS011;63553;51.814;4.600;2024-01-25T08:39:26;5.10;;;2.13;;
75005;SDS011;63553;51.814;4.600;2024-01-25T08:41:51;4.65;;;2.38;;
75005;SDS011;63553;51.814;4.600;2024-01-25T08:44:17;4.32;;;1.83;;
75005;SDS011;63553;51.814;4.600;2024-01-25T08:46:42;7.13;;;2.67;;
75005;SDS011;63553;51.814;4.600;2024-01-25T08:49:08;5.05;;;1.70;;
75005;SDS011;63553;51.814;4.600;2024-01-25T08:51:35;6.57;;;1.88;;
75005;SDS011;63553;51.814;4.600;2024-01-25T08:54:01;3.85;;;1.65;;
75005;SDS011;63553;51.814;4.600;2024-01-25T08:56:26;3.58;;;1.60;;
75005;SDS011;63553;51.814;4.600;2024-01-25T08:58:51;4.70;;;1.60;;
75005;SDS011;63553;51.814;4.600;2024-01-25T09:01:17;4.78;;;1.55;;
75005;SDS011;63553;51.814;4.600;2024-01-25T09:03:42;6.20;;;1.70;;
75005;SDS011;63553;51.814;4.600;2024-01-25T09:06:08;3.77;;;1.90;;
75005;SDS011;63553;51.814;4.600;2024-01-25T09:08:34;3.90;;;1.73;;
75005;SDS011;63553;51.814;4.600;2024-01-25T09:10:59;4.82;;;1.88;;
75005;SDS011;63553;51.814;4.600;2024-01-25T09:13:25;3.67;;;1.40;;
75005;SDS011;63553;51.814;4.600;2024-01-25T09:15:50;2.90;;;1.60;;
75005;SDS011;63553;51.814;4.600;2024-01-25T09:18:15;6.82;;;2.00;;
75005;SDS011;63553;51.814;4.600;2024-01-25T09:20:41;4.28;;;1.48;;
75005;SDS011;63553;51.814;4.600;2024-01-25T09:23:09;51.00;;;8.68;;
75005;SDS011;63553;51.814;4.600;2024-01-25T09:25:35;34.80;;;6.45;;
75005;SDS011;63553;51.814;4.600;2024-01-25T09:28:00;30.80;;;6.57;;
75005;SDS011;63553;51.814;4.600;2024-01-25T09:30:26;39.65;;;6.90;;
75005;SDS011;63553;51.814;4.600;2024-01-25T09:32:52;20.50;;;5.35;;
75005;SDS011;63553;51.814;4.600;2024-01-25T09:35:17;23.13;;;4.87;;
75005;SDS011;63553;51.814;4.600;2024-01-25T09:37:42;21.15;;;4.82;;
75005;SDS011;63553;51.814;4.600;2024-01-25T09:40:08;19.77;;;4.50;;
75005;SDS011;63553;51.814;4.600;2024-01-25T09:42:35;17.70;;;4.32;;
75005;SDS011;63553;51.814;4.600;2024-01-25T09:45:01;8.05;;;2.90;;
75005;SDS011;63553;51.814;4.600;2024-01-25T09:47:31;8.10;;;2.40;;
75005;SDS011;63553;51.814;4.600;2024-01-25T09:49:56;4.38;;;2.03;;
75005;SDS011;63553;51.814;4.600;2024-01-25T09:52:23;7.22;;;1.67;;
75005;SDS011;63553;51.814;4.600;2024-01-25T09:54:50;31.35;;;8.55;;
75005;SDS011;63553;51.814;4.600;2024-01-25T09:57:18;121.82;;;14.40;;
75005;SDS011;63553;51.814;4.600;2024-01-25T09:59:49;127.43;;;17.50;;
75005;SDS011;63553;51.814;4.600;2024-01-25T10:02:15;378.55;;;41.15;;
75005;SDS011;63553;51.814;4.600;2024-01-25T10:04:40;58.90;;;10.13;;
75005;SDS011;63553;51.814;4.600;2024-01-25T10:07:06;22.58;;;5.53;;
75005;SDS011;63553;51.814;4.600;2024-01-25T10:09:38;16.60;;;4.65;;
75005;SDS011;63553;51.814;4.600;2024-01-25T10:12:04;25.23;;;5.63;;
75005;SDS011;63553;51.814;4.600;2024-01-25T10:14:30;26.90;;;5.60;;
75005;SDS011;63553;51.814;4.600;2024-01-25T10:16:56;19.57;;;5.97;;
75005;SDS011;63553;51.814;4.600;2024-01-25T10:19:22;20.08;;;6.45;;
75005;SDS011;63553;51.814;4.600;2024-01-25T10:21:48;25.92;;;5.32;;
75005;SDS011;63553;51.814;4.600;2024-01-25T10:24:14;29.88;;;6.22;;
75005;SDS011;63553;51.814;4.600;2024-01-25T10:26:40;28.10;;;6.43;;
75005;SDS011;63553;51.814;4.600;2024-01-25T10:29:07;18.02;;;5.22;;
75005;SDS011;63553;51.814;4.600;2024-01-25T10:31:35;22.73;;;5.32;;
75005;SDS011;63553;51.814;4.600;2024-01-25T10:34:03;23.42;;;5.65;;
75005;SDS011;63553;51.814;4.600;2024-01-25T10:36:30;31.45;;;5.38;;
75005;SDS011;63553;51.814;4.600;2024-01-25T10:38:56;20.85;;;5.82;;
75005;SDS011;63553;51.814;4.600;2024-01-25T10:41:23;26.50;;;5.95;;
75005;SDS011;63553;51.814;4.600;2024-01-25T10:43:49;25.83;;;5.65;;
75005;SDS011;63553;51.814;4.600;2024-01-25T10:46:14;24.63;;;6.33;;
75005;SDS011;63553;51.814;4.600;2024-01-25T10:48:39;28.42;;;6.85;;
75005;SDS011;63553;51.814;4.600;2024-01-25T10:51:06;18.88;;;5.55;;
75005;SDS011;63553;51.814;4.600;2024-01-25T10:53:33;24.00;;;6.60;;
75005;SDS011;63553;51.814;4.600;2024-01-25T10:55:59;22.85;;;5.00;;
75005;SDS011;63553;51.814;4.600;2024-01-25T10:58:30;23.85;;;5.78;;
75005;SDS011;63553;51.814;4.600;2024-01-25T11:01:00;24.35;;;5.88;;
75005;SDS011;63553;51.814;4.600;2024-01-25T11:03:26;22.50;;;5.30;;
75005;SDS011;63553;51.814;4.600;2024-01-25T11:05:54;26.52;;;6.28;;
75005;SDS011;63553;51.814;4.600;2024-01-25T11:08:20;23.02;;;5.35;;
75005;SDS011;63553;51.814;4.600;2024-01-25T11:10:52;27.70;;;6.35;;
75005;SDS011;63553;51.814;4.600;2024-01-25T11:13:28;21.10;;;5.30;;
75005;SDS011;63553;51.814;4.600;2024-01-25T11:15:54;25.05;;;5.85;;
75005;SDS011;63553;51.814;4.600;2024-01-25T11:18:20;24.48;;;5.85;;
75005;SDS011;63553;51.814;4.600;2024-01-25T11:20:50;19.08;;;6.05;;
75005;SDS011;63553;51.814;4.600;2024-01-25T11:23:15;24.63;;;6.57;;
75005;SDS011;63553;51.814;4.600;2024-01-25T11:25:43;24.33;;;6.07;;
75005;SDS011;63553;51.814;4.600;2024-01-25T11:28:10;24.83;;;6.25;;
75005;SDS011;63553;51.814;4.600;2024-01-25T11:30:38;22.98;;;6.55;;
75005;SDS011;63553;51.814;4.600;2024-01-25T11:33:04;23.15;;;6.07;;
75005;SDS011;63553;51.814;4.600;2024-01-25T11:35:30;23.75;;;5.55;;
75005;SDS011;63553;51.814;4.600;2024-01-25T11:37:56;16.10;;;6.20;;
75005;SDS011;63553;51.814;4.600;2024-01-25T11:40:22;18.38;;;6.53;;
75005;SDS011;63553;51.814;4.600;2024-01-25T11:42:48;23.23;;;7.40;;
75005;SDS011;63553;51.814;4.600;2024-01-25T11:45:15;26.73;;;7.40;;
75005;SDS011;63553;51.814;4.600;2024-01-25T11:47:43;27.83;;;6.95;;
75005;SDS011;63553;51.814;4.600;2024-01-25T11:50:10;21.60;;;7.18;;
75005;SDS011;63553;51.814;4.600;2024-01-25T11:52:36;18.05;;;6.93;;
75005;SDS011;63553;51.814;4.600;2024-01-25T11:55:11;18.20;;;6.70;;
75005;SDS011;63553;51.814;4.600;2024-01-25T11:57:37;21.83;;;6.43;;
75005;SDS011;63553;51.814;4.600;2024-01-25T12:00:06;20.65;;;6.93;;
75005;SDS011;63553;51.814;4.600;2024-01-25T12:02:34;21.45;;;6.15;;
75005;SDS011;63553;51.814;4.600;2024-01-25T12:05:01;21.70;;;6.32;;
75005;SDS011;63553;51.814;4.600;2024-01-25T12:07:29;23.15;;;6.40;;
75005;SDS011;63553;51.814;4.600;2024-01-25T12:09:59;18.45;;;5.78;;
75005;SDS011;63553;51.814;4.600;2024-01-25T12:12:27;21.00;;;5.95;;
75005;SDS011;63553;51.814;4.600;2024-01-25T12:15:00;23.05;;;6.10;;
75005;SDS011;63553;51.814;4.600;2024-01-25T12:17:29;20.15;;;6.43;;
75005;SDS011;63553;51.814;4.600;2024-01-25T12:19:56;31.55;;;6.63;;
75005;SDS011;63553;51.814;4.600;2024-01-25T12:22:22;20.90;;;5.70;;
75005;SDS011;63553;51.814;4.600;2024-01-25T12:24:50;26.20;;;6.80;;
75005;SDS011;63553;51.814;4.600;2024-01-25T12:27:18;21.80;;;5.88;;
75005;SDS011;63553;51.814;4.600;2024-01-25T12:29:46;24.77;;;5.50;;
75005;SDS011;63553;51.814;4.600;2024-01-25T12:32:11;22.95;;;4.68;;
75005;SDS011;63553;51.814;4.600;2024-01-25T12:34:37;20.35;;;4.97;;
75005;SDS011;63553;51.814;4.600;2024-01-25T12:37:04;20.67;;;4.47;;
75005;SDS011;63553;51.814;4.600;2024-01-25T12:39:29;24.10;;;5.35;;
75005;SDS011;63553;51.814;4.600;2024-01-25T12:41:55;18.97;;;4.63;;
75005;SDS011;63553;51.814;4.600;2024-01-25T12:44:20;18.47;;;4.90;;
75005;SDS011;63553;51.814;4.600;2024-01-25T12:46:45;18.60;;;4.85;;
75005;SDS011;63553;51.814;4.600;2024-01-25T12:49:11;22.03;;;4.80;;
75005;SDS011;63553;51.814;4.600;2024-01-25T12:51:36;15.13;;;4.43;;
75005;SDS011;63553;51.814;4.600;2024-01-25T12:54:01;30.05;;;5.93;;
75005;SDS011;63553;51.814;4.600;2024-01-25T12:56:27;24.73;;;4.82;;
75005;SDS011;63553;51.814;4.600;2024-01-25T12:58:52;19.37;;;4.77;;
75005;SDS011;63553;51.814;4.600;2024-01-25T13:01:18;18.13;;;4.40;;
75005;SDS011;63553;51.814;4.600;2024-01-25T13:03:44;13.57;;;3.72;;
75005;SDS011;63553;51.814;4.600;2024-01-25T13:06:11;23.10;;;4.70;;
75005;SDS011;63553;51.814;4.600;2024-01-25T13:08:37;20.95;;;4.60;;
75005;SDS011;63553;51.814;4.600;2024-01-25T13:11:02;18.90;;;4.78;;
75005;SDS011;63553;51.814;4.600;2024-01-25T13:13:28;19.25;;;4.53;;
75005;SDS011;63553;51.814;4.600;2024-01-25T13:15:54;21.25;;;5.82;;
75005;SDS011;63553;51.814;4.600;2024-01-25T13:18:19;19.50;;;5.43;;
75005;SDS011;63553;51.814;4.600;2024-01-25T13:20:44;16.10;;;4.77;;
75005;SDS011;63553;51.814;4.600;2024-01-25T13:23:09;21.80;;;4.73;;
75005;SDS011;63553;51.814;4.600;2024-01-25T13:25:35;18.10;;;5.17;;
75005;SDS011;63553;51.814;4.600;2024-01-25T13:28:00;18.92;;;5.28;;
75005;SDS011;63553;51.814;4.600;2024-01-25T13:30:26;22.37;;;5.57;;
75005;SDS011;63553;51.814;4.600;2024-01-25T13:32:51;21.70;;;5.40;;
75005;SDS011;63553;51.814;4.600;2024-01-25T13:35:16;17.75;;;5.93;;
75005;SDS011;63553;51.814;4.600;2024-01-25T13:37:42;18.92;;;6.22;;
75005;SDS011;63553;51.814;4.600;2024-01-25T13:40:07;14.87;;;6.40;;
75005;SDS011;63553;51.814;4.600;2024-01-25T13:42:33;17.67;;;5.40;;
75005;SDS011;63553;51.814;4.600;2024-01-25T13:44:58;12.13;;;5.80;;
75005;SDS011;63553;51.814;4.600;2024-01-25T13:47:24;20.02;;;4.00;;
75005;SDS011;63553;51.814;4.600;2024-01-25T13:49:49;9.35;;;2.75;;
75005;SDS011;63553;51.814;4.600;2024-01-25T13:52:18;7.15;;;3.08;;
75005;SDS011;63553;51.814;4.600;2024-01-25T13:54:47;12.75;;;2.95;;
75005;SDS011;63553;51.814;4.600;2024-01-25T13:57:15;8.07;;;2.38;;
75005;SDS011;63553;51.814;4.600;2024-01-25T13:59:41;6.70;;;2.45;;
75005;SDS011;63553;51.814;4.600;2024-01-25T14:02:07;14.18;;;2.50;;
75005;SDS011;63553;51.814;4.600;2024-01-25T14:04:32;7.90;;;2.13;;
75005;SDS011;63553;51.814;4.600;2024-01-25T14:06:57;9.63;;;2.30;;
75005;SDS011;63553;51.814;4.600;2024-01-25T14:09:23;5.53;;;2.03;;
75005;SDS011;63553;51.814;4.600;2024-01-25T14:11:48;11.27;;;2.47;;
75005;SDS011;63553;51.814;4.600;2024-01-25T14:14:13;7.47;;;2.47;;
75005;SDS011;63553;51.814;4.600;2024-01-25T14:16:39;6.70;;;3.00;;
75005;SDS011;63553;51.814;4.600;2024-01-25T14:19:04;4.13;;;2.43;;
75005;SDS011;63553;51.814;4.600;2024-01-25T14:21:30;3.28;;;1.95;;
75005;SDS011;63553;51.814;4.600;2024-01-25T14:23:56;5.82;;;2.30;;
75005;SDS011;63553;51.814;4.600;2024-01-25T14:26:21;6.55;;;2.45;;
75005;SDS011;63553;51.814;4.600;2024-01-25T14:28:47;4.43;;;2.17;;
75005;SDS011;63553;51.814;4.600;2024-01-25T14:31:13;4.05;;;2.58;;
75005;SDS011;63553;51.814;4.600;2024-01-25T14:33:38;3.28;;;1.95;;